createdAt,value
2023-05-19T00:01:25.165Z,74.80
2023-05-19T00:06:31.674Z,75.36
2023-05-19T00:11:36.421Z,76.00
2023-05-19T00:16:38.770Z,76.73
2023-05-19T00:21:40.604Z,77.35
2023-05-19T00:26:42.426Z,77.71
2023-05-19T00:31:44.743Z,77.99
2023-05-19T00:36:46.869Z,78.59
2023-05-19T00:41:49.036Z,79.01
2023-05-19T00:46:50.860Z,79.51
2023-05-19T00:51:53.171Z,79.59
2023-05-19T00:56:57.040Z,79.79
2023-05-19T01:01:58.840Z,80.27
2023-05-19T01:07:00.861Z,80.32
2023-05-19T01:12:02.786Z,80.69
2023-05-19T01:17:17.279Z,80.65
2023-05-19T01:22:54.918Z,80.87
2023-05-19T01:28:21.500Z,81.00
2023-05-19T01:33:24.596Z,81.05
2023-05-19T01:38:29.422Z,81.03
2023-05-19T01:43:33.730Z,81.29
2023-05-19T01:48:36.628Z,82.02
2023-05-19T01:53:38.495Z,81.75
2023-05-19T01:58:47.205Z,81.98
2023-05-19T02:03:52.034Z,82.23
2023-05-19T02:09:12.098Z,81.83
2023-05-19T02:14:19.911Z,82.06
2023-05-19T02:19:28.098Z,82.07
2023-05-19T02:24:30.104Z,81.90
2023-05-19T02:29:34.052Z,81.98
2023-05-19T02:34:35.762Z,82.10
2023-05-19T02:39:40.037Z,82.29
2023-05-19T02:44:41.756Z,82.34
2023-05-19T02:49:44.275Z,82.07
2023-05-19T02:54:46.228Z,82.38
2023-05-19T02:59:48.061Z,82.16
2023-05-19T03:04:49.924Z,82.31
2023-05-19T03:09:52.663Z,82.33
2023-05-19T03:14:54.337Z,82.42
2023-05-19T03:19:56.063Z,82.16
2023-05-19T03:24:58.557Z,82.26
2023-05-19T03:30:00.337Z,82.42
2023-05-19T03:35:02.100Z,82.41
2023-05-19T03:40:05.728Z,82.18
2023-05-19T03:45:09.949Z,81.99
2023-05-19T03:50:11.836Z,81.99
2023-05-19T03:55:37.428Z,81.78
2023-05-19T04:00:39.028Z,81.81
2023-05-19T04:05:40.943Z,81.66
2023-05-19T04:10:42.767Z,81.42
2023-05-19T04:15:44.703Z,81.51
2023-05-19T04:20:46.650Z,81.34
2023-05-19T04:25:49.631Z,81.36
2023-05-19T04:30:51.614Z,80.84
2023-05-19T04:35:53.702Z,80.58
2023-05-19T04:40:56.372Z,80.63
2023-05-19T04:45:58.917Z,80.52
2023-05-19T04:51:03.972Z,80.11
2023-05-19T04:56:06.392Z,79.74
2023-05-19T05:01:09.690Z,79.80
2023-05-19T05:06:12.109Z,79.48
2023-05-19T05:11:14.281Z,79.16
2023-05-19T05:16:16.691Z,79.09
2023-05-19T05:21:18.827Z,78.91
2023-05-19T05:26:23.287Z,78.49
2023-05-19T05:31:27.069Z,78.58
2023-05-19T05:36:29.048Z,78.19
2023-05-19T05:41:35.229Z,78.06
2023-05-19T05:46:40.561Z,77.80
2023-05-19T05:51:48.432Z,77.48
2023-05-19T05:56:57.028Z,77.10
2023-05-19T06:01:59.601Z,76.99
2023-05-19T06:07:01.927Z,77.16
2023-05-19T06:12:07.990Z,76.94
2023-05-19T06:17:14.390Z,76.93
2023-05-19T06:22:16.206Z,76.37
2023-05-19T06:27:18.950Z,76.12
2023-05-19T06:32:21.449Z,75.85
2023-05-19T06:37:23.910Z,75.33
2023-05-19T06:42:25.787Z,75.39
2023-05-19T06:47:42.524Z,74.75
2023-05-19T06:52:44.706Z,74.60
2023-05-19T06:57:47.744Z,74.49
2023-05-19T07:02:50.107Z,74.80
2023-05-19T07:07:52.180Z,74.76
2023-05-19T07:12:58.156Z,74.29
2023-05-19T07:18:02.303Z,74.32
2023-05-19T07:23:05.426Z,73.91
2023-05-19T07:28:07.513Z,73.48
2023-05-19T07:33:09.219Z,72.83
2023-05-19T07:38:11.480Z,72.43
2023-05-19T07:43:13.307Z,72.07
2023-05-19T07:48:15.073Z,71.84
2023-05-19T07:53:16.962Z,71.82
2023-05-19T07:58:19.923Z,71.66
2023-05-19T08:03:23.628Z,70.64
2023-05-19T08:08:25.672Z,70.17
2023-05-19T08:13:27.596Z,70.18
2023-05-19T08:18:29.477Z,70.15
2023-05-19T08:23:31.957Z,69.85
2023-05-19T08:28:33.952Z,69.47
2023-05-19T08:33:35.801Z,68.20
2023-05-19T08:38:37.644Z,67.54
2023-05-19T08:43:39.977Z,67.29
2023-05-19T08:48:44.293Z,66.49
2023-05-19T08:53:53.757Z,66.40
2023-05-19T08:59:00.291Z,65.85
2023-05-19T09:04:03.440Z,64.97
2023-05-19T09:09:06.356Z,63.87
2023-05-19T09:14:08.177Z,63.98
2023-05-19T09:19:17.203Z,63.66
2023-05-19T09:24:19.154Z,63.48
2023-05-19T09:29:20.918Z,63.87
2023-05-19T09:34:24.765Z,63.91
2023-05-19T09:39:26.862Z,63.50
2023-05-19T09:44:32.809Z,63.69
2023-05-19T09:49:34.585Z,64.21
2023-05-19T09:54:37.390Z,64.32
2023-05-19T09:59:40.833Z,64.08
2023-05-19T10:04:43.093Z,64.21
2023-05-19T10:09:46.116Z,63.77
2023-05-19T10:14:48.750Z,63.39
2023-05-19T10:19:52.560Z,62.74
2023-05-19T10:24:56.044Z,62.55
2023-05-19T10:30:02.569Z,61.55
2023-05-19T10:35:26.221Z,61.06
2023-05-19T10:40:33.233Z,61.46
2023-05-19T10:45:45.398Z,61.08
2023-05-19T10:50:47.650Z,61.07
2023-05-19T10:55:56.480Z,60.76
2023-05-19T11:01:01.604Z,60.96
2023-05-19T11:06:38.765Z,61.84
2023-05-19T11:11:52.214Z,61.59
2023-05-19T11:16:58.159Z,61.04
2023-05-19T11:22:13.210Z,60.90
2023-05-19T11:27:19.334Z,61.08
2023-05-19T11:32:22.789Z,60.46
2023-05-19T11:37:24.626Z,59.83
2023-05-19T11:42:26.295Z,59.65
2023-05-19T11:47:28.351Z,59.53
2023-05-19T11:52:31.009Z,60.16
2023-05-19T11:57:32.902Z,60.38
2023-05-19T12:02:36.335Z,60.52
2023-05-19T12:07:39.514Z,60.57
2023-05-19T12:12:45.113Z,60.84
2023-05-19T12:17:50.407Z,60.96
2023-05-19T12:22:53.177Z,61.01
2023-05-19T12:27:59.483Z,60.54
2023-05-19T12:33:02.118Z,60.49
2023-05-19T12:38:07.533Z,59.69
2023-05-19T12:43:20.140Z,59.43
2023-05-19T12:48:22.967Z,58.94
2023-05-19T12:53:27.925Z,59.05
2023-05-19T12:58:34.466Z,58.76
2023-05-19T13:03:42.950Z,58.15
2023-05-19T13:08:47.309Z,58.11
2023-05-19T13:13:49.068Z,58.62
2023-05-19T13:18:51.565Z,58.03
2023-05-19T13:23:53.407Z,58.02
2023-05-19T13:28:55.138Z,58.07
2023-05-19T13:33:57.047Z,58.57
2023-05-19T13:38:58.867Z,58.74
2023-05-19T13:44:00.818Z,58.89
2023-05-19T13:49:02.674Z,59.04
2023-05-19T13:54:05.144Z,59.20
2023-05-19T13:59:07.193Z,59.32
2023-05-19T14:04:10.582Z,59.97
2023-05-19T14:09:13.192Z,59.98
2023-05-19T14:14:15.104Z,59.85
2023-05-19T14:19:17.388Z,59.52
2023-05-19T14:24:20.190Z,59.29
2023-05-19T14:29:21.911Z,59.92
2023-05-19T14:34:23.708Z,60.53
2023-05-19T14:39:25.596Z,60.20
2023-05-19T14:44:32.867Z,60.27
2023-05-19T14:49:34.717Z,60.68
2023-05-19T14:54:36.568Z,60.50
2023-05-19T14:59:39.161Z,60.67
2023-05-19T15:04:41.189Z,60.56
2023-05-19T15:09:42.938Z,60.54
2023-05-19T15:14:44.631Z,60.52
2023-05-19T15:19:46.698Z,60.27
2023-05-19T15:24:48.498Z,60.46
2023-05-19T15:29:50.241Z,60.68
2023-05-19T15:34:52.041Z,61.16
2023-05-19T15:39:55.056Z,61.56
2023-05-19T15:44:57.122Z,62.01
2023-05-19T15:49:58.826Z,62.00
2023-05-19T15:55:00.637Z,62.68
2023-05-19T16:00:02.449Z,63.16
2023-05-19T16:05:07.882Z,63.61
2023-05-19T16:10:09.891Z,63.99
2023-05-19T16:15:11.664Z,64.11
2023-05-19T16:20:13.607Z,64.59
2023-05-19T16:25:15.484Z,64.90
2023-05-19T16:30:17.300Z,65.20
2023-05-19T16:35:19.574Z,65.27
2023-05-19T16:40:21.311Z,65.42
2023-05-19T16:45:23.136Z,65.97
2023-05-19T16:50:24.894Z,66.46
2023-05-19T16:55:26.930Z,66.53
2023-05-19T17:00:29.887Z,67.05
2023-05-19T17:05:32.053Z,67.47
2023-05-19T17:10:34.267Z,67.63
2023-05-19T17:15:36.452Z,68.02
2023-05-19T17:20:38.223Z,68.11
2023-05-19T17:25:39.982Z,68.62
2023-05-19T17:30:42.342Z,68.80
2023-05-19T17:35:44.254Z,69.32
2023-05-19T17:40:46.018Z,69.62
2023-05-19T17:45:47.746Z,70.24
2023-05-19T17:50:49.525Z,70.26
2023-05-19T17:55:56.044Z,70.58
2023-05-19T18:00:57.983Z,70.87
2023-05-19T18:06:00.599Z,70.85
2023-05-19T18:11:02.930Z,71.01
2023-05-19T18:16:04.818Z,71.57
2023-05-19T18:21:06.733Z,71.67
2023-05-19T18:26:08.490Z,71.46
2023-05-19T18:31:15.786Z,72.05
2023-05-19T18:36:17.659Z,72.23
2023-05-19T18:41:19.495Z,72.06
2023-05-19T18:46:21.493Z,72.29
2023-05-19T18:51:23.545Z,72.14
2023-05-19T18:56:27.254Z,72.64
2023-05-19T19:01:29.080Z,72.58
2023-05-19T19:06:31.285Z,72.88
2023-05-19T19:11:33.067Z,73.18
2023-05-19T19:16:35.122Z,73.23
2023-05-19T19:21:37.088Z,73.25
2023-05-19T19:26:38.880Z,73.98
2023-05-19T19:31:40.746Z,73.83
2023-05-19T19:36:43.851Z,74.05
2023-05-19T19:41:45.611Z,74.07
2023-05-19T19:46:47.344Z,74.36
2023-05-19T19:51:49.655Z,74.34
2023-05-19T19:56:51.425Z,74.54
2023-05-19T20:01:53.399Z,74.73
2023-05-19T20:06:55.382Z,74.78
2023-05-19T20:11:57.207Z,74.95
2023-05-19T20:16:59.013Z,75.22
2023-05-19T20:22:02.718Z,75.52
2023-05-19T20:27:04.559Z,75.47
2023-05-19T20:32:06.900Z,75.46
2023-05-19T20:37:08.759Z,75.53
2023-05-19T20:42:11.258Z,75.79
2023-05-19T20:47:13.114Z,76.08
2023-05-19T20:52:18.639Z,76.09
2023-05-19T20:57:21.012Z,76.48
2023-05-19T21:02:22.773Z,76.76
2023-05-19T21:07:25.089Z,76.73
2023-05-19T21:12:33.948Z,76.78
2023-05-19T21:17:41.733Z,76.78
2023-05-19T21:22:43.959Z,76.65
2023-05-19T21:27:46.464Z,76.70
2023-05-19T21:32:48.265Z,76.88
2023-05-19T21:37:50.295Z,76.80
2023-05-19T21:42:54.515Z,76.59
2023-05-19T21:47:58.626Z,76.79
2023-05-19T21:53:02.756Z,76.54
2023-05-19T21:58:04.612Z,76.51
2023-05-19T22:03:06.712Z,76.82
2023-05-19T22:08:08.609Z,76.73
2023-05-19T22:13:10.752Z,76.69
2023-05-19T22:18:12.624Z,76.99
2023-05-19T22:23:14.552Z,76.85
2023-05-19T22:28:16.450Z,76.96
2023-05-19T22:33:18.227Z,76.77
2023-05-19T22:38:19.974Z,77.02
2023-05-19T22:43:21.693Z,77.08
2023-05-19T22:48:23.368Z,77.41
2023-05-19T22:53:25.281Z,77.39
2023-05-19T22:58:27.051Z,77.26
2023-05-19T23:03:28.751Z,77.38
2023-05-19T23:08:31.469Z,77.44
2023-05-19T23:13:53.704Z,77.58
2023-05-19T23:18:55.543Z,77.63
2023-05-19T23:23:57.500Z,77.92
2023-05-19T23:28:59.299Z,77.97
2023-05-19T23:34:01.289Z,77.93
2023-05-19T23:39:06.447Z,78.05
2023-05-19T23:44:09.188Z,78.06
2023-05-19T23:49:12.394Z,78.23
2023-05-19T23:54:14.094Z,78.02
2023-05-19T23:59:15.830Z,78.11
